Time;durP1;ratioP1;P1;durP2;ratioP2;P2;SDS_P1;SDS_P2;PMS_P1;PMS_P2;Temp;Humidity;BMP_temperature;BMP_pressure;BME280_temperature;BME280_humidity;BME280_pressure;Samples;Min_cycle;Max_cycle;Signal;HPM_P1;HPM_P2
2023/03/04 00:00:11;;;;;;;60.80;36.40;;;;;;;-1.45;91.92;97362.35;110188;1242;69849;-68
2023/03/04 00:03:00;;;;;;;51.20;32.80;;;;;;;-1.47;97.57;97360.52;110204;1240;59738;-69
2023/03/04 00:05:30;;;;;;;50.00;32.60;;;;;;;-1.52;97.62;97360.50;110217;1240;59704;-68
2023/03/04 00:07:59;;;;;;;;;;;;;;;-1.57;99.29;97360.92;110184;1242;71824;-68
2023/03/04 00:10:30;;;;;;;43.70;26.70;;;;;;;-1.64;98.50;97358.91;110189;1240;68565;-68
2023/03/04 00:12:59;;;;;;;40.60;26.70;;;;;;;-1.71;98.32;97359.93;110191;1248;68549;-68
2023/03/04 00:15:28;;;;;;;42.30;26.40;;;;;;;-1.76;98.79;97362.11;110122;1241;59694;-68
2023/03/04 00:17:58;;;;;;;33.30;23.00;;;;;;;-1.80;97.33;97362.90;110176;1242;59744;-69
2023/03/04 00:20:27;;;;;;;44.50;29.30;;;;;;;-1.81;99.62;97357.44;110242;1242;71832;-68
2023/03/04 00:22:56;;;;;;;51.00;31.40;;;;;;;-1.82;99.91;97359.50;110294;1241;68822;-69
2023/03/04 00:25:25;;;;;;;52.10;30.10;;;;;;;-1.82;100.00;97360.03;110301;1241;68378;-68
2023/03/04 00:27:55;;;;;;;56.40;33.60;;;;;;;-1.81;98.16;97357.79;110317;1241;59743;-69
2023/03/04 00:30:25;;;;;;;47.40;26.80;;;;;;;-1.80;98.99;97356.40;110245;1241;59621;-69
2023/03/04 00:32:54;;;;;;;54.10;31.10;;;;;;;-1.81;96.21;97358.46;110213;1241;71368;-68
2023/03/04 00:35:24;;;;;;;49.50;29.30;;;;;;;-1.82;98.35;97356.27;110154;1241;68512;-69
2023/03/04 00:37:56;;;;;;;44.90;26.60;;;;;;;-1.86;99.56;97350.90;110239;1241;68445;-69
2023/03/04 00:40:26;;;;;;;47.50;27.10;;;;;;;-1.88;99.56;97354.05;110337;1242;59750;-69
2023/03/04 00:42:56;;;;;;;45.50;25.30;;;;;;;-1.92;99.91;97356.02;110201;1244;59700;-69
2023/03/04 00:45:27;;;;;;;48.20;29.50;;;;;;;-1.99;99.27;97350.20;110273;1241;71377;-69
2023/03/04 00:47:57;;;;;;;46.20;27.40;;;;;;;-2.05;98.24;97349.31;110268;1242;69118;-69
2023/03/04 00:50:26;;;;;;;41.60;26.40;;;;;;;-2.07;97.94;97349.02;110277;1240;69292;-69
2023/03/04 00:52:55;;;;;;;38.60;25.30;;;;;;;-2.08;97.96;97346.48;110259;1242;60097;-69
2023/03/04 00:55:25;;;;;;;37.90;22.50;;;;;;;-2.09;97.94;97341.52;110246;1242;59708;-68
2023/03/04 00:57:55;;;;;;;43.70;27.30;;;;;;;-2.08;98.65;97342.38;110253;1241;70546;-68
2023/03/04 01:00:25;;;;;;;43.70;27.20;;;;;;;-2.05;99.63;97344.54;110256;1242;69242;-67
2023/03/04 01:02:55;;;;;;;;;;;;;;;-2.01;100.00;97341.89;110327;1241;69601;-69
2023/03/04 01:05:23;;;;;;;32.00;19.60;;;;;;;-2.00;100.00;97343.40;110148;1241;59745;-69
2023/03/04 01:07:54;;;;;;;43.30;24.90;;;;;;;-2.00;97.71;97343.89;110394;1239;60506;-68
2023/03/04 01:10:24;;;;;;;37.60;22.10;;;;;;;-1.99;94.60;97342.84;110144;1245;71814;-69
2023/03/04 01:12:54;;;;;;;;;;;;;;;-1.99;94.14;97341.30;110401;1240;67462;-69
2023/03/04 01:15:24;;;;;;;32.10;19.90;;;;;;;-1.99;94.07;97346.09;110237;1241;68501;-70
2023/03/04 01:17:54;;;;;;;38.10;24.10;;;;;;;-1.99;94.19;97343.02;110204;1245;59787;-70
2023/03/04 01:20:23;;;;;;;;;;;;;;;-2.00;95.46;97342.37;110227;1241;59643;-70
2023/03/04 01:22:53;;;;;;;31.60;20.60;;;;;;;-2.04;99.13;97342.63;110325;1241;71455;-70
2023/03/04 01:25:22;;;;;;;36.50;22.00;;;;;;;-2.08;98.87;97342.21;110210;1243;69197;-69
2023/03/04 01:27:52;;;;;;;33.40;22.20;;;;;;;-2.11;99.23;97342.63;110235;1242;69363;-69
2023/03/04 01:30:22;;;;;;;46.30;27.80;;;;;;;-2.15;97.41;97337.95;110241;1247;59728;-69
2023/03/04 01:32:52;;;;;;;30.70;20.80;;;;;;;-2.19;96.73;97342.14;110387;1241;59681;-70
2023/03/04 01:35:21;;;;;;;48.30;28.60;;;;;;;-2.26;97.98;97336.65;110382;1241;71403;-70
2023/03/04 01:37:52;;;;;;;35.80;23.20;;;;;;;-2.31;98.52;97337.61;110445;1241;69193;-70
2023/03/04 01:40:22;;;;;;;38.60;24.30;;;;;;;-2.36;99.91;97340.81;110403;1242;69214;-69
2023/03/04 01:42:51;;;;;;;43.50;27.30;;;;;;;-2.42;100.00;97338.56;110209;1241;59803;-69
2023/03/04 01:45:21;;;;;;;44.30;25.70;;;;;;;-2.49;100.00;97335.48;110185;1241;60078;-70
2023/03/04 01:47:51;;;;;;;42.70;25.00;;;;;;;-2.54;100.00;97333.20;110283;1241;71752;-69
2023/03/04 01:50:32;;;;;;;40.40;24.50;;;;;;;-2.59;100.00;97333.63;110248;1243;69290;-70
2023/03/04 01:53:03;;;;;;;46.00;27.60;;;;;;;-2.64;100.00;97332.04;110225;1241;69137;-70
2023/03/04 01:55:34;;;;;;;40.30;24.40;;;;;;;-2.66;100.00;97327.66;110419;1241;59734;-70
2023/03/04 01:58:08;;;;;;;41.10;26.30;;;;;;;-2.66;100.00;97324.42;110528;1241;59757;-70
2023/03/04 02:00:39;;;;;;;39.10;24.30;;;;;;;-2.64;100.00;97322.48;110325;1239;71424;-70
2023/03/04 02:03:14;;;;;;;33.70;22.80;;;;;;;-2.65;100.00;97323.35;110292;1240;68517;-69
2023/03/04 02:05:47;;;;;;;33.10;19.70;;;;;;;-2.65;100.00;97320.30;110326;1242;69361;-69
2023/03/04 02:08:19;;;;;;;32.10;21.30;;;;;;;-2.62;100.00;97321.09;110359;1242;59763;-69
2023/03/04 02:10:50;;;;;;;26.30;17.60;;;;;;;-2.60;100.00;97321.39;110272;1242;59647;-69
2023/03/04 02:13:20;;;;;;;25.70;16.40;;;;;;;-2.61;100.00;97315.59;110316;1241;71632;-69
2023/03/04 02:15:53;;;;;;;27.40;17.30;;;;;;;-2.59;100.00;97313.17;110155;1241;69411;-69
2023/03/04 02:18:23;;;;;;;;;;;;;;;-2.58;100.00;97315.02;110209;1242;68317;-69
2023/03/04 02:21:24;;;;;;;37.90;22.30;;;;;;;-2.59;100.00;97311.63;110241;1242;59726;-70
2023/03/04 02:24:50;;;;;;;37.50;24.10;;;;;;;-2.59;100.00;97306.67;110245;1241;59742;-69
2023/03/04 02:27:20;;;;;;;39.70;23.20;;;;;;;-2.60;100.00;97303.27;109492;1247;70637;-69
2023/03/04 02:29:50;;;;;;;;;;;;;;;-2.61;100.00;97305.86;109508;1247;69075;-69
2023/03/04 02:32:19;;;;;;;37.40;21.90;;;;;;;-2.63;100.00;97307.11;110083;1244;69110;-69
2023/03/04 02:34:50;;;;;;;43.60;25.50;;;;;;;-2.65;100.00;97302.55;110384;1242;59728;-69
2023/03/04 02:37:21;;;;;;;45.80;26.00;;;;;;;-2.67;99.54;97296.27;110156;1241;59756;-69
2023/03/04 02:39:53;;;;;;;36.80;22.90;;;;;;;-2.66;97.06;97296.08;110405;1241;71356;-69
2023/03/04 02:42:22;;;;;;;33.60;22.00;;;;;;;-2.65;96.94;97299.46;110274;1240;68496;-69
2023/03/04 02:45:00;;;;;;;33.80;21.00;;;;;;;-2.65;96.91;97300.33;110129;1244;69307;-69
2023/03/04 02:47:31;;;;;;;37.80;21.40;;;;;;;-2.66;96.81;97300.52;110129;1244;59714;-69
2023/03/04 02:50:03;;;;;;;41.80;23.30;;;;;;;-2.65;97.34;97304.59;110355;1241;59658;-69
2023/03/04 02:52:34;;;;;;;34.00;21.40;;;;;;;-2.65;97.47;97304.07;110415;1241;71885;-69
2023/03/04 02:55:05;;;;;;;32.30;21.50;;;;;;;-2.67;97.33;97304.30;110461;1241;69199;-69
2023/03/04 02:57:36;;;;;;;25.10;19.30;;;;;;;-2.71;97.46;97303.19;110156;1244;69249;-69
2023/03/04 03:00:08;;;;;;;25.30;17.50;;;;;;;-2.75;98.03;97306.17;110307;1245;59640;-69
2023/03/04 03:02:39;;;;;;;31.70;18.80;;;;;;;-2.80;99.13;97302.70;110345;1240;59712;-69
2023/03/04 03:05:11;;;;;;;26.20;19.80;;;;;;;-2.84;99.92;97297.83;110234;1241;70442;-69
2023/03/04 03:07:41;;;;;;;35.80;23.10;;;;;;;-2.85;100.00;97298.40;110169;1242;69504;-69
2023/03/04 03:10:11;;;;;;;;;;;;;;;-2.86;100.00;97298.91;110096;1244;69273;-69
2023/03/04 03:12:42;;;;;;;34.20;21.60;;;;;;;-2.88;100.00;97297.23;110374;1241;59658;-69
2023/03/04 03:15:13;;;;;;;33.50;21.10;;;;;;;-2.90;100.00;97297.12;110419;1241;59701;-69
2023/03/04 03:17:44;;;;;;;29.40;19.40;;;;;;;-2.95;100.00;97294.32;110340;1241;71237;-69
2023/03/04 03:20:16;;;;;;;40.30;24.30;;;;;;;-2.98;100.00;97296.59;110177;1240;68583;-69
2023/03/04 03:22:45;;;;;;;44.70;25.90;;;;;;;-2.99;100.00;97292.90;110407;1242;69243;-69
2023/03/04 03:25:16;;;;;;;43.00;23.30;;;;;;;-3.02;100.00;97291.73;110135;1240;59698;-69
2023/03/04 03:27:47;;;;;;;39.80;24.70;;;;;;;-3.04;100.00;97294.18;110332;1241;59728;-69
2023/03/04 03:30:18;;;;;;;34.50;20.30;;;;;;;-3.07;100.00;97296.27;110280;1241;71377;-69
2023/03/04 03:32:49;;;;;;;36.40;21.80;;;;;;;-3.07;100.00;97296.10;110184;1243;69039;-69
2023/03/04 03:35:21;;;;;;;41.70;24.30;;;;;;;-3.07;100.00;97297.13;110281;1242;69347;-68
2023/03/04 03:37:54;;;;;;;45.00;25.40;;;;;;;-3.03;100.00;97296.89;110271;1240;59767;-69
2023/03/04 03:40:25;;;;;;;56.30;31.30;;;;;;;-2.97;100.00;97301.20;110348;1241;59678;-69
2023/03/04 03:42:57;;;;;;;40.60;22.70;;;;;;;-2.90;100.00;97295.75;110369;1242;70643;-69
2023/03/04 03:45:27;;;;;;;33.90;22.10;;;;;;;-2.82;100.00;97295.75;110420;1240;69312;-69
2023/03/04 03:47:59;;;;;;;42.70;24.90;;;;;;;-2.71;100.00;97301.48;110415;1241;69430;-68
2023/03/04 03:50:29;;;;;;;48.80;28.80;;;;;;;-2.59;100.00;97302.56;110468;1241;59764;-69
2023/03/04 03:53:00;;;;;;;;;;;;;;;-2.52;100.00;97302.44;110273;1241;59688;-69
2023/03/04 03:55:30;;;;;;;47.90;26.70;;;;;;;-2.45;100.00;97306.02;110172;1242;71368;-69
2023/03/04 03:58:00;;;;;;;53.80;30.80;;;;;;;-2.38;100.00;97304.50;110248;1242;69850;-69
2023/03/04 04:00:32;;;;;;;45.30;26.00;;;;;;;-2.30;100.00;97301.58;110188;1241;69262;-69
2023/03/04 04:03:02;;;;;;;35.30;21.90;;;;;;;-2.24;100.00;97301.63;110221;1240;60065;-69
2023/03/04 04:05:32;;;;;;;43.60;23.60;;;;;;;-2.21;100.00;97300.87;110293;1241;59730;-69
2023/03/04 04:08:03;;;;;;;39.30;25.50;;;;;;;-2.19;100.00;97299.45;110445;1240;70641;-69
2023/03/04 04:10:32;;;;;;;40.20;23.60;;;;;;;-2.20;100.00;97301.51;110305;1241;68320;-69
2023/03/04 04:13:01;;;;;;;35.10;22.50;;;;;;;-2.21;100.00;97302.57;110285;1241;68414;-68
2023/03/04 04:15:31;;;;;;;36.50;21.70;;;;;;;-2.22;100.00;97301.39;110367;1241;59691;-68
2023/03/04 04:18:02;;;;;;;42.70;24.50;;;;;;;-2.22;100.00;97301.20;110196;1242;59715;-69
2023/03/04 04:20:32;;;;;;;40.80;25.30;;;;;;;-2.20;100.00;97298.77;110201;1242;70819;-69
2023/03/04 04:23:03;;;;;;;36.30;21.00;;;;;;;-2.17;100.00;97299.23;110165;1242;68535;-68
2023/03/04 04:25:33;;;;;;;;;;;;;;;-2.10;100.00;97294.61;110238;1242;69311;-68
2023/03/04 04:28:04;;;;;;;36.00;20.00;;;;;;;-2.04;100.00;97288.84;110147;1241;59790;-68
2023/03/04 04:30:34;;;;;;;42.30;23.80;;;;;;;-1.99;100.00;97284.80;110148;1241;59708;-70
2023/03/04 04:33:03;;;;;;;;;;;;;;;-1.93;100.00;97282.42;110169;1243;71217;-68
2023/03/04 04:35:37;;;;;;;41.60;22.50;;;;;;;-1.90;100.00;97275.50;110288;1241;69317;-68
2023/03/04 04:38:08;;;;;;;47.10;26.60;;;;;;;-1.85;100.00;97279.64;110343;1241;69272;-68
2023/03/04 04:40:38;;;;;;;36.70;23.00;;;;;;;-1.81;100.00;97278.16;110294;1241;59760;-68
2023/03/04 04:43:08;;;;;;;34.10;21.80;;;;;;;-1.77;100.00;97281.31;110212;1242;59805;-68
2023/03/04 04:45:37;;;;;;;44.80;27.60;;;;;;;-1.75;100.00;97282.64;110270;1241;70448;-69
2023/03/04 04:48:08;;;;;;;41.10;23.50;;;;;;;-1.74;100.00;97282.61;110227;1242;69801;-68
2023/03/04 04:50:38;;;;;;;38.80;23.40;;;;;;;-1.73;100.00;97282.92;110177;1244;68547;-68
2023/03/04 04:53:12;;;;;;;35.40;22.20;;;;;;;-1.70;100.00;97284.89;110162;1243;59874;-70
2023/03/04 04:55:41;;;;;;;45.00;25.50;;;;;;;-1.68;100.00;97285.68;110152;1241;59623;-68
2023/03/04 04:58:09;;;;;;;38.00;23.90;;;;;;;-1.69;100.00;97285.91;110173;1244;71484;-69
2023/03/04 05:00:39;;;;;;;36.60;22.90;;;;;;;-1.73;100.00;97283.95;110253;1242;68270;-69
2023/03/04 05:03:08;;;;;;;38.10;23.50;;;;;;;-1.74;100.00;97288.76;110369;1242;69858;-68
2023/03/04 05:05:37;;;;;;;34.50;21.50;;;;;;;-1.75;100.00;97288.27;110432;1242;59734;-68
2023/03/04 05:08:06;;;;;;;35.50;22.30;;;;;;;-1.73;100.00;97288.06;110326;1241;59631;-68
2023/03/04 05:10:36;;;;;;;43.90;26.30;;;;;;;-1.72;100.00;97286.30;110126;1240;70585;-68
2023/03/04 05:13:04;;;;;;;37.10;22.90;;;;;;;-1.71;100.00;97291.08;110222;1240;69495;-69
2023/03/04 05:15:37;;;;;;;39.30;22.60;;;;;;;-1.70;100.00;97288.17;110206;1242;69306;-68
2023/03/04 05:18:06;;;;;;;41.00;25.40;;;;;;;-1.70;100.00;97286.61;110216;1240;59722;-69
2023/03/04 05:20:35;;;;;;;41.90;26.30;;;;;;;-1.69;100.00;97289.31;110173;1242;59687;-68
2023/03/04 05:23:05;;;;;;;45.80;28.10;;;;;;;-1.67;100.00;97287.03;110130;1247;70514;-69
2023/03/04 05:25:34;;;;;;;43.00;25.00;;;;;;;-1.65;100.00;97283.92;110141;1244;69812;-69
2023/03/04 05:28:03;;;;;;;44.80;25.00;;;;;;;-1.62;100.00;97286.39;110134;1244;69180;-69
2023/03/04 05:30:33;;;;;;;;;;;;;;;-1.56;100.00;97285.37;110165;1240;59773;-69
2023/03/04 05:33:01;;;;;;;41.10;25.30;;;;;;;-1.51;100.00;97293.48;110181;1242;60091;-69
2023/03/04 05:35:31;;;;;;;39.50;23.60;;;;;;;-1.50;100.00;97290.88;110221;1240;71880;-69
2023/03/04 05:38:00;;;;;;;42.30;24.60;;;;;;;-1.47;100.00;97292.16;110060;1241;68769;-69
2023/03/04 05:40:29;;;;;;;39.40;23.00;;;;;;;-1.44;100.00;97293.77;110215;1243;70575;-69
2023/03/04 05:42:58;;;;;;;40.70;24.70;;;;;;;-1.37;100.00;97300.61;110238;1241;59740;-69
2023/03/04 05:45:27;;;;;;;45.90;26.60;;;;;;;-1.27;100.00;97302.21;110235;1242;59662;-69
2023/03/04 05:47:57;;;;;;;39.70;24.60;;;;;;;-1.16;100.00;97303.96;110192;1241;71365;-68
2023/03/04 05:50:26;;;;;;;42.90;24.40;;;;;;;-1.08;100.00;97308.51;110205;1240;70045;-69
2023/03/04 05:52:55;;;;;;;43.70;27.40;;;;;;;-1.00;100.00;97308.64;110136;1243;69374;-69
2023/03/04 05:55:27;;;;;;;52.00;29.40;;;;;;;-0.96;100.00;97311.80;110298;1241;59743;-70
2023/03/04 05:57:57;;;;;;;55.50;34.50;;;;;;;-0.93;100.00;97311.35;110266;1241;59741;-67
2023/03/04 06:00:26;;;;;;;47.30;28.90;;;;;;;-0.91;100.00;97316.10;110314;1241;72344;-70
2023/03/04 06:02:55;;;;;;;62.10;35.20;;;;;;;-0.87;100.00;97314.95;110249;1242;69854;-67
2023/03/04 06:05:24;;;;;;;59.00;33.10;;;;;;;-0.84;100.00;97316.21;110121;1244;69323;-69
2023/03/04 06:07:53;;;;;;;54.70;31.70;;;;;;;-0.79;100.00;97316.25;110236;1243;60189;-68
2023/03/04 06:10:22;;;;;;;187.20;83.90;;;;;;;-0.71;100.00;97318.24;110105;1242;59720;-69
2023/03/04 06:12:51;;;;;;;213.70;98.20;;;;;;;-0.64;100.00;97313.73;110244;1241;71335;-69
2023/03/04 06:15:20;;;;;;;126.20;61.60;;;;;;;-0.55;100.00;97316.57;110339;1240;68537;-70
2023/03/04 06:17:50;;;;;;;85.50;44.80;;;;;;;-0.45;100.00;97313.54;110265;1242;70190;-70
2023/03/04 06:20:19;;;;;;;;;;;;;;;-0.34;100.00;97315.58;110422;1241;59714;-70
2023/03/04 06:22:48;;;;;;;54.90;33.10;;;;;;;-0.22;100.00;97315.05;110408;1238;59816;-70
2023/03/04 06:25:18;;;;;;;52.10;32.00;;;;;;;-0.11;100.00;97315.55;110569;1241;71976;-70
2023/03/04 06:27:47;;;;;;;56.30;35.90;;;;;;;0.02;100.00;97317.05;110428;1240;69999;-69
2023/03/04 06:30:18;;;;;;;69.40;43.90;;;;;;;0.09;100.00;97314.21;110405;1241;69740;-69
2023/03/04 06:32:47;;;;;;;74.90;45.60;;;;;;;0.16;100.00;97316.07;110342;1241;59719;-69
2023/03/04 06:35:16;;;;;;;68.10;44.30;;;;;;;0.23;100.00;97314.79;110343;1241;59669;-70
2023/03/04 06:37:45;;;;;;;87.10;55.40;;;;;;;0.31;100.00;97310.77;110216;1242;71401;-70
2023/03/04 06:40:14;;;;;;;88.80;54.70;;;;;;;0.38;100.00;97313.75;110237;1242;69071;-70
2023/03/04 06:42:43;;;;;;;87.90;52.70;;;;;;;0.48;100.00;97312.24;110276;1242;69878;-70
2023/03/04 06:45:12;;;;;;;70.50;45.50;;;;;;;0.58;100.00;97309.31;110197;1242;59737;-69
2023/03/04 06:47:42;;;;;;;66.60;43.00;;;;;;;0.69;100.00;97311.16;110207;1240;59757;-70
2023/03/04 06:50:12;;;;;;;61.60;38.50;;;;;;;0.80;100.00;97308.38;110335;1241;70651;-70
2023/03/04 06:52:40;;;;;;;61.80;40.70;;;;;;;0.88;100.00;97309.45;110306;1244;69652;-70
2023/03/04 06:55:09;;;;;;;54.70;38.50;;;;;;;0.96;99.87;97313.81;110453;1239;68719;-68
2023/03/04 06:57:38;;;;;;;55.20;34.20;;;;;;;1.08;99.53;97315.46;110460;1242;59692;-69
2023/03/04 07:00:08;;;;;;;48.40;32.60;;;;;;;1.19;99.43;97313.99;110216;1242;59685;-68
2023/03/04 07:02:37;;;;;;;50.90;34.30;;;;;;;1.28;99.77;97313.33;110378;1242;71572;-68
2023/03/04 07:05:06;;;;;;;54.70;34.40;;;;;;;1.38;100.00;97315.01;110428;1242;69418;-69
2023/03/04 07:07:35;;;;;;;76.00;47.80;;;;;;;1.44;100.00;97317.89;110420;1241;69297;-69
2023/03/04 07:10:05;;;;;;;57.30;36.40;;;;;;;1.51;100.00;97315.71;110326;1241;59686;-69
2023/03/04 07:12:34;;;;;;;54.40;36.50;;;;;;;1.65;100.00;97308.48;110163;1243;59678;-69
2023/03/04 07:15:04;;;;;;;62.20;38.40;;;;;;;1.77;100.00;97303.20;110316;1240;71758;-70
2023/03/04 07:17:33;;;;;;;63.10;41.90;;;;;;;1.87;99.93;97303.84;110330;1240;69800;-69
2023/03/04 07:20:02;;;;;;;78.90;50.60;;;;;;;1.96;99.39;97300.38;110383;1239;69726;-70
2023/03/04 07:22:31;;;;;;;76.30;49.30;;;;;;;2.06;99.20;97297.92;110336;1242;59731;-70
2023/03/04 07:25:00;;;;;;;81.30;52.10;;;;;;;2.14;99.19;97299.98;109892;1241;638272;-69
2023/03/04 07:27:29;;;;;;;68.20;42.60;;;;;;;2.19;99.51;97296.71;110206;1242;71831;-69
2023/03/04 07:29:58;;;;;;;58.20;39.70;;;;;;;2.31;99.10;97294.83;110187;1242;69204;-68
2023/03/04 07:32:28;;;;;;;53.00;36.80;;;;;;;2.41;99.43;97300.10;110050;1244;69169;-69
2023/03/04 07:34:57;;;;;;;62.30;38.00;;;;;;;2.52;99.55;97299.95;110203;1241;59776;-69
2023/03/04 07:37:26;;;;;;;50.80;33.90;;;;;;;2.63;99.62;97297.63;110399;1241;59723;-69
2023/03/04 07:39:55;;;;;;;50.30;32.60;;;;;;;2.74;99.23;97297.15;110304;1241;71361;-69
2023/03/04 07:42:23;;;;;;;49.10;30.10;;;;;;;2.85;99.38;97299.41;110377;1241;69821;-69
2023/03/04 07:44:56;;;;;;;50.80;30.20;;;;;;;3.02;98.97;97299.38;110106;1244;69276;-69
2023/03/04 07:47:25;;;;;;;41.70;27.30;;;;;;;3.15;97.81;97297.92;110256;1241;59709;-69
2023/03/04 07:49:55;;;;;;;38.40;27.10;;;;;;;3.34;97.60;97296.02;110415;1242;59698;-69
2023/03/04 07:52:24;;;;;;;41.10;25.10;;;;;;;3.55;96.85;97287.63;110357;1241;71568;-69
2023/03/04 07:54:52;;;;;;;34.30;22.70;;;;;;;3.80;95.23;97288.55;110438;1241;69251;-70
2023/03/04 07:57:21;;;;;;;33.90;21.60;;;;;;;4.06;94.12;97284.67;110406;1241;69244;-69
2023/03/04 07:59:50;;;;;;;35.10;22.40;;;;;;;4.26;91.69;97285.61;110376;1249;59740;-69
2023/03/04 08:02:19;;;;;;;33.30;22.10;;;;;;;4.64;90.68;97287.16;110404;1242;59603;-69
2023/03/04 08:04:48;;;;;;;31.70;20.90;;;;;;;4.94;88.73;97283.55;110363;1242;70822;-69
2023/03/04 08:07:17;;;;;;;33.20;20.50;;;;;;;5.22;89.48;97285.70;110474;1242;68733;-69
2023/03/04 08:09:46;;;;;;;28.70;19.30;;;;;;;5.45;88.94;97281.52;110147;1244;67432;-70
2023/03/04 08:12:15;;;;;;;31.60;22.00;;;;;;;5.67;88.34;97278.08;110237;1240;59663;-70
2023/03/04 08:14:44;;;;;;;26.30;19.70;;;;;;;5.83;86.99;97273.39;110336;1241;59634;-69
2023/03/04 08:17:15;;;;;;;32.90;24.10;;;;;;;6.00;87.05;97266.89;110363;1241;71412;-69
2023/03/04 08:19:44;;;;;;;30.90;21.50;;;;;;;6.05;83.20;97263.46;110378;1242;69368;-69
2023/03/04 08:22:13;;;;;;;33.70;23.40;;;;;;;6.30;84.90;97264.70;110306;1242;69059;-69
2023/03/04 08:24:42;;;;;;;31.60;20.70;;;;;;;6.49;81.88;97260.79;110265;1242;59714;-69
2023/03/04 08:27:11;;;;;;;28.10;18.80;;;;;;;6.73;82.00;97262.30;110152;1242;59669;-69
2023/03/04 08:29:39;;;;;;;28.50;19.10;;;;;;;6.74;75.77;97259.63;110173;1244;70989;-69
2023/03/04 08:32:08;;;;;;;28.50;18.80;;;;;;;6.67;74.57;97258.31;110216;1241;68761;-69
2023/03/04 08:34:39;;;;;;;29.00;20.10;;;;;;;6.99;75.25;97255.88;110304;1241;69156;-70
2023/03/04 08:37:08;;;;;;;31.30;20.60;;;;;;;7.28;75.00;97251.15;110170;1242;59741;-69
2023/03/04 08:39:36;;;;;;;32.20;22.00;;;;;;;7.61;72.75;97253.26;110130;1244;59647;-69
2023/03/04 08:42:05;;;;;;;28.90;20.70;;;;;;;7.90;70.40;97247.09;110139;1241;71924;-69
2023/03/04 08:44:34;;;;;;;25.80;18.90;;;;;;;8.46;69.12;97248.97;110238;1241;69687;-69
2023/03/04 08:47:03;;;;;;;26.60;18.90;;;;;;;8.95;66.50;97251.00;110230;1241;68796;-70
2023/03/04 08:49:32;;;;;;;25.30;19.40;;;;;;;9.14;64.97;97249.04;110314;1245;59705;-69
2023/03/04 08:52:03;;;;;;;27.60;18.60;;;;;;;9.51;63.82;97241.89;110172;1242;59679;-68
2023/03/04 08:54:32;;;;;;;25.50;19.20;;;;;;;10.04;61.77;97238.11;110193;1241;71838;-69
2023/03/04 08:57:02;;;;;;;26.80;20.10;;;;;;;10.62;60.07;97240.91;110329;1241;68123;-68
2023/03/04 08:59:31;;;;;;;25.50;19.10;;;;;;;10.55;59.24;97239.00;110187;1242;68780;-68
2023/03/04 09:02:00;;;;;;;32.60;23.30;;;;;;;10.95;59.68;97240.65;110168;1241;59754;-69
2023/03/04 09:04:28;;;;;;;23.90;18.50;;;;;;;10.48;58.93;97236.70;110138;1245;60142;-69
2023/03/04 09:06:57;;;;;;;26.20;18.50;;;;;;;10.66;60.27;97233.66;110165;1245;71367;-68
2023/03/04 09:09:26;;;;;;;24.30;17.20;;;;;;;10.87;60.12;97232.08;110187;1244;69200;-69
2023/03/04 09:11:55;;;;;;;24.80;18.40;;;;;;;11.06;59.20;97231.64;110160;1242;69307;-68
2023/03/04 09:14:24;;;;;;;24.90;17.60;;;;;;;10.91;57.03;97227.36;110192;1241;59738;-67
2023/03/04 09:16:52;;;;;;;20.30;15.80;;;;;;;11.08;57.68;97225.20;110207;1242;59688;-69
2023/03/04 09:19:22;;;;;;;22.70;17.80;;;;;;;11.24;56.92;97224.50;110322;1241;71538;-67
2023/03/04 09:21:50;;;;;;;24.20;18.00;;;;;;;10.73;56.91;97229.66;110227;1242;69212;-68
2023/03/04 09:24:19;;;;;;;24.40;17.00;;;;;;;10.17;57.80;97226.16;110218;1249;69873;-70
2023/03/04 09:26:50;;;;;;;24.70;19.20;;;;;;;9.64;59.80;97225.48;110231;1241;59726;-69
2023/03/04 09:40:41;;;;;;;22.10;17.20;;;;;;;11.65;58.06;97211.57;107186;1274;609778;-69
2023/03/04 09:43:26;;;;;;;33.10;24.30;;;;;;;13.10;54.46;97205.71;108798;1258;300237;-70
2023/03/04 09:46:00;;;;;;;22.90;18.00;;;;;;;13.02;51.97;97202.11;109125;1253;57702;-70
2023/03/04 09:48:40;;;;;;;21.20;16.30;;;;;;;12.62;51.86;97203.46;109309;1254;68967;-69
2023/03/04 09:51:32;;;;;;;21.20;16.60;;;;;;;11.81;52.87;97197.94;109227;1255;69915;-69
2023/03/04 09:54:27;;;;;;;17.90;13.80;;;;;;;11.13;54.70;97195.52;109023;1254;69382;-70
2023/03/04 09:57:10;;;;;;;17.60;13.80;;;;;;;10.65;55.07;97195.18;109183;1255;57742;-69
2023/03/04 09:59:48;;;;;;;17.80;13.60;;;;;;;10.58;55.53;97188.63;109615;1247;57705;-69
2023/03/04 10:02:44;;;;;;;19.50;14.20;;;;;;;10.66;55.74;97188.16;109598;1248;68426;-70
2023/03/04 10:05:18;;;;;;;17.20;12.40;;;;;;;10.33;56.00;97180.75;109752;1246;69581;-69
2023/03/04 10:08:01;;;;;;;23.50;15.60;;;;;;;10.29;56.43;97172.83;109759;1248;69252;-68
2023/03/04 10:10:38;;;;;;;21.20;14.20;;;;;;;9.94;56.56;97174.05;109748;1245;58098;-70
2023/03/04 10:13:16;;;;;;;18.30;12.80;;;;;;;9.67;57.28;97166.48;109729;1253;58063;-69
2023/03/04 10:15:49;;;;;;;20.70;14.90;;;;;;;9.83;56.92;97158.18;109720;1247;69571;-71
2023/03/04 10:18:29;;;;;;;23.60;15.00;;;;;;;10.13;56.87;97149.28;109939;1248;69635;-69
2023/03/04 10:21:30;;;;;;;21.50;14.60;;;;;;;10.21;56.47;97147.88;109860;1248;69619;-69
2023/03/04 10:24:16;;;;;;;22.40;13.60;;;;;;;9.98;56.66;97142.42;109856;1246;58132;-69
2023/03/04 10:26:49;;;;;;;18.90;13.80;;;;;;;10.06;55.80;97136.05;109818;1248;58157;-69
2023/03/04 10:29:23;;;;;;;20.10;15.40;;;;;;;10.29;55.36;97130.36;110148;1244;69439;-70
2023/03/04 10:31:54;;;;;;;17.30;13.00;;;;;;;10.03;56.05;97123.77;110103;1245;69171;-69
2023/03/04 10:34:24;;;;;;;17.80;14.00;;;;;;;9.96;56.58;97121.83;110122;1245;69274;-69
2023/03/04 10:36:58;;;;;;;18.90;12.90;;;;;;;9.97;56.33;97117.58;110106;1245;58086;-69
2023/03/04 10:39:30;;;;;;;19.80;13.10;;;;;;;10.22;55.19;97115.34;110120;1245;58022;-69
2023/03/04 10:42:19;;;;;;;15.70;11.80;;;;;;;10.96;54.97;97110.52;110117;1245;67877;-69
2023/03/04 10:44:57;;;;;;;18.90;12.30;;;;;;;11.99;52.41;97103.02;110084;1245;69223;-70
2023/03/04 10:47:29;;;;;;;14.90;11.80;;;;;;;12.44;49.69;97102.92;110111;1247;70047;-69
2023/03/04 10:50:01;;;;;;;15.50;12.10;;;;;;;13.69;48.28;97097.23;110085;1244;58132;-69
2023/03/04 10:52:45;;;;;;;16.10;11.50;;;;;;;14.26;45.63;97090.45;110098;1245;58141;-68
2023/03/04 10:55:18;;;;;;;18.70;13.20;;;;;;;14.41;44.85;97080.28;110110;1246;68846;-70
2023/03/04 10:58:02;;;;;;;17.60;11.50;;;;;;;13.96;44.35;97080.08;110109;1246;70307;-70
2023/03/04 11:00:34;;;;;;;17.10;12.70;;;;;;;13.67;45.41;97079.20;110092;1246;68538;-70
2023/03/04 11:03:29;;;;;;;15.70;11.80;;;;;;;13.09;45.44;97074.41;110145;1245;58043;-69
2023/03/04 11:06:10;;;;;;;14.30;12.00;;;;;;;12.02;48.00;97076.06;110132;1245;57999;-69
2023/03/04 11:08:40;;;;;;;16.40;12.40;;;;;;;11.84;47.95;97071.98;110125;1246;69001;-68
2023/03/04 11:11:33;;;;;;;15.20;11.30;;;;;;;11.27;49.11;97068.64;110170;1243;68317;-70
2023/03/04 11:14:29;;;;;;;15.00;10.30;;;;;;;11.59;49.65;97060.11;110117;1242;70039;-70
2023/03/04 11:17:15;;;;;;;16.80;12.40;;;;;;;12.83;47.87;97046.23;110125;1246;58093;-69
2023/03/04 11:19:52;;;;;;;16.70;12.10;;;;;;;13.23;46.28;97042.37;110044;1246;58066;-67
2023/03/04 11:22:23;;;;;;;13.30;9.90;;;;;;;13.01;46.64;97037.64;110084;1252;68966;-69
2023/03/04 11:24:57;;;;;;;14.50;11.30;;;;;;;12.45;46.75;97030.52;110132;1246;69649;-70
2023/03/04 11:27:41;;;;;;;15.00;11.70;;;;;;;11.90;47.99;97032.71;110112;1245;70329;-69
2023/03/04 11:30:43;;;;;;;14.40;10.40;;;;;;;12.19;48.15;97024.66;110134;1241;58140;-70
2023/03/04 11:33:41;;;;;;;16.40;11.00;;;;;;;11.98;48.27;97021.56;110091;1246;58556;-71
2023/03/04 11:36:46;;;;;;;22.80;14.80;;;;;;;11.74;49.24;97019.38;110111;1246;69687;-69
2023/03/04 11:39:37;;;;;;;17.40;12.60;;;;;;;11.51;50.25;97013.60;110120;1245;69224;-70
2023/03/04 11:42:44;;;;;;;12.90;10.00;;;;;;;12.46;48.96;97005.70;110143;1241;69082;-69
2023/03/04 11:45:16;;;;;;;15.50;11.20;;;;;;;13.85;45.93;97001.16;110144;1245;58128;-69